createdAt,value
2019-02-07T00:00:00.017Z,6.20
2019-02-07T00:02:30.172Z,6.20
2019-02-07T00:04:59.027Z,6.10
2019-02-07T00:07:27.476Z,6.10
2019-02-07T00:09:55.888Z,6.10
2019-02-07T00:12:24.323Z,6.10
2019-02-07T00:14:52.836Z,6.10
2019-02-07T00:17:21.272Z,6.00
2019-02-07T00:19:49.969Z,5.90
2019-02-07T00:22:18.386Z,5.80
2019-02-07T00:24:46.824Z,5.90
2019-02-07T00:27:15.366Z,5.80
2019-02-07T00:29:43.831Z,5.90
2019-02-07T00:32:12.273Z,5.80
2019-02-07T00:34:40.724Z,5.90
2019-02-07T00:37:09.300Z,5.80
2019-02-07T00:39:37.824Z,5.80
2019-02-07T00:42:06.231Z,5.80
2019-02-07T00:44:34.692Z,5.70
2019-02-07T00:47:03.173Z,5.80
2019-02-07T00:49:31.688Z,5.70
2019-02-07T00:52:00.551Z,5.80
2019-02-07T00:54:28.978Z,5.80
2019-02-07T00:56:57.416Z,5.80
2019-02-07T00:59:25.972Z,5.70
2019-02-07T01:01:54.482Z,5.40
2019-02-07T01:04:22.981Z,5.30
2019-02-07T01:06:51.888Z,5.20
2019-02-07T01:09:20.326Z,5.10
2019-02-07T01:11:48.764Z,5.00
2019-02-07T01:14:17.357Z,5.00
2019-02-07T01:16:45.756Z,5.00
2019-02-07T01:19:14.228Z,4.90
2019-02-07T01:21:42.793Z,4.90
2019-02-07T01:24:11.217Z,4.90
2019-02-07T01:26:39.656Z,4.90
2019-02-07T01:29:08.140Z,4.90
2019-02-07T01:31:36.564Z,4.80
2019-02-07T01:34:05.478Z,4.90
2019-02-07T01:36:33.897Z,4.80
2019-02-07T01:39:02.529Z,4.80
2019-02-07T01:41:30.981Z,4.70
2019-02-07T01:43:59.399Z,4.70
2019-02-07T01:46:27.904Z,4.70
2019-02-07T01:48:56.402Z,4.60
2019-02-07T01:51:24.844Z,4.60
2019-02-07T01:53:53.269Z,4.50
2019-02-07T01:56:21.704Z,4.50
2019-02-07T01:58:50.122Z,4.40
2019-02-07T02:01:18.551Z,4.40
2019-02-07T02:03:46.987Z,4.40
2019-02-07T02:06:15.437Z,4.40
2019-02-07T02:08:43.959Z,4.40
2019-02-07T02:11:12.724Z,4.40
2019-02-07T02:13:41.228Z,4.40
2019-02-07T02:16:09.640Z,4.40
2019-02-07T02:18:38.084Z,4.40
2019-02-07T02:21:06.632Z,4.40
2019-02-07T02:23:35.056Z,4.30
2019-02-07T02:26:03.592Z,4.30
2019-02-07T02:28:32.001Z,4.30
2019-02-07T02:31:00.545Z,4.30
2019-02-07T02:33:29.036Z,4.30
2019-02-07T02:35:57.512Z,4.30
2019-02-07T02:38:25.995Z,4.30
2019-02-07T02:40:54.569Z,4.30
2019-02-07T02:43:23.252Z,4.30
2019-02-07T02:45:51.673Z,4.30
2019-02-07T02:48:20.323Z,4.30
2019-02-07T02:50:48.756Z,4.30
2019-02-07T02:53:17.279Z,4.30
2019-02-07T02:55:45.729Z,4.30
2019-02-07T02:58:14.147Z,4.30
2019-02-07T03:00:46.988Z,4.30
2019-02-07T03:03:22.532Z,4.40
2019-02-07T03:06:07.394Z,4.30
2019-02-07T03:08:37.536Z,4.40
2019-02-07T03:11:13.469Z,4.40
2019-02-07T03:13:58.700Z,4.40
2019-02-07T03:16:37.392Z,4.40
2019-02-07T03:19:07.637Z,4.40
2019-02-07T03:21:40.428Z,4.40
2019-02-07T03:24:13.168Z,4.40
2019-02-07T03:26:43.420Z,4.40
2019-02-07T03:29:13.491Z,4.40
2019-02-07T03:31:46.504Z,4.50
2019-02-07T03:34:16.583Z,4.50
2019-02-07T03:36:52.537Z,4.50
2019-02-07T03:39:22.624Z,4.50
2019-02-07T03:42:09.018Z,4.50
2019-02-07T03:44:56.816Z,4.50
2019-02-07T03:47:35.690Z,4.50
2019-02-07T03:50:06.901Z,4.60
2019-02-07T03:52:37.915Z,4.60
2019-02-07T03:55:11.203Z,4.60
2019-02-07T03:57:43.958Z,4.60
2019-02-07T04:00:17.190Z,4.60
2019-02-07T04:02:49.988Z,4.60
2019-02-07T04:05:36.210Z,4.60
2019-02-07T04:08:06.591Z,4.60
2019-02-07T04:10:45.752Z,4.70
2019-02-07T04:13:15.857Z,4.60
2019-02-07T04:15:48.751Z,4.70
2019-02-07T04:18:18.916Z,4.70
2019-02-07T04:20:54.935Z,4.70
2019-02-07T04:23:27.447Z,4.70
2019-02-07T04:26:13.825Z,4.70
2019-02-07T04:28:46.527Z,4.70
2019-02-07T04:31:17.019Z,4.80
2019-02-07T04:33:55.782Z,4.80
2019-02-07T04:36:34.353Z,4.80
2019-02-07T04:39:12.965Z,4.80
2019-02-07T04:41:51.700Z,4.90
2019-02-07T04:44:37.512Z,4.90
2019-02-07T04:47:16.234Z,4.90
2019-02-07T04:50:02.304Z,4.90
2019-02-07T04:52:32.370Z,4.90
2019-02-07T04:55:02.433Z,4.90
2019-02-07T04:57:35.235Z,4.90
2019-02-07T05:00:12.412Z,4.90
2019-02-07T05:02:51.275Z,5.00
2019-02-07T05:05:21.390Z,5.00
2019-02-07T05:07:51.521Z,5.00
2019-02-07T05:10:24.818Z,5.00
2019-02-07T05:12:57.451Z,5.10
2019-02-07T05:15:30.483Z,5.10
2019-02-07T05:18:06.102Z,5.10
2019-02-07T05:20:42.309Z,5.10
2019-02-07T05:23:17.931Z,5.20
2019-02-07T05:25:54.055Z,5.20
2019-02-07T05:28:24.164Z,5.20
2019-02-07T05:30:57.018Z,5.20
2019-02-07T05:33:27.071Z,5.20
2019-02-07T05:36:06.048Z,5.20
2019-02-07T05:38:52.159Z,5.20
2019-02-07T05:41:28.669Z,5.30
2019-02-07T05:44:10.665Z,5.30
2019-02-07T05:46:59.187Z,5.30
2019-02-07T05:49:43.905Z,5.30
2019-02-07T05:52:13.965Z,5.40
2019-02-07T05:54:46.556Z,5.40
2019-02-07T05:57:16.615Z,5.40
2019-02-07T05:59:46.947Z,5.40
2019-02-07T06:02:33.233Z,5.40
2019-02-07T06:05:19.067Z,5.50
2019-02-07T06:07:58.187Z,5.50
2019-02-07T06:10:30.839Z,5.50
2019-02-07T06:13:06.969Z,5.60
2019-02-07T06:15:53.109Z,5.80
2019-02-07T06:18:23.163Z,6.00
2019-02-07T06:20:53.210Z,6.00
2019-02-07T06:23:31.823Z,6.10
2019-02-07T06:26:13.667Z,6.30
2019-02-07T06:28:49.639Z,6.30
2019-02-07T06:31:35.489Z,6.70
2019-02-07T06:34:28.766Z,6.90
2019-02-07T06:36:52.764Z,6.80
2019-02-07T06:39:28.763Z,6.80
2019-02-07T06:42:14.696Z,6.80
2019-02-07T06:45:01.020Z,6.90
2019-02-07T06:47:47.104Z,6.90
2019-02-07T06:50:17.468Z,6.90
2019-02-07T06:52:50.256Z,6.80
2019-02-07T06:55:22.999Z,6.80
2019-02-07T06:57:58.847Z,6.80
2019-02-07T07:00:45.654Z,6.90
2019-02-07T07:03:19.690Z,6.90
2019-02-07T07:05:54.450Z,7.00
2019-02-07T07:08:30.800Z,6.90
2019-02-07T07:11:10.344Z,6.90
2019-02-07T07:13:40.483Z,7.00
2019-02-07T07:16:26.024Z,6.90
2019-02-07T07:19:15.094Z,6.90
2019-02-07T07:22:08.617Z,7.00
2019-02-07T07:24:59.166Z,6.90
2019-02-07T07:27:37.636Z,7.00
2019-02-07T07:30:17.692Z,7.00
2019-02-07T07:32:51.777Z,7.00
2019-02-07T07:35:42.223Z,7.00
2019-02-07T07:38:32.723Z,7.00
2019-02-07T07:41:08.468Z,7.00
2019-02-07T07:43:41.821Z,7.00
2019-02-07T07:46:21.487Z,7.10
2019-02-07T07:49:10.447Z,7.10
2019-02-07T07:51:50.313Z,7.10
2019-02-07T07:54:32.949Z,7.10
2019-02-07T07:57:08.931Z,7.20
2019-02-07T07:59:51.240Z,7.20
2019-02-07T08:02:26.183Z,7.30
2019-02-07T08:05:13.916Z,7.30
2019-02-07T08:07:55.840Z,7.30
2019-02-07T08:10:43.940Z,7.30
2019-02-07T08:13:21.321Z,7.40
2019-02-07T08:15:59.027Z,7.40
2019-02-07T08:18:48.952Z,7.50
2019-02-07T08:21:25.020Z,7.50
2019-02-07T08:23:59.769Z,7.50
2019-02-07T08:26:40.073Z,7.60
2019-02-07T08:29:10.220Z,7.60
2019-02-07T08:31:59.317Z,7.70
2019-02-07T08:34:37.845Z,7.70
2019-02-07T08:37:08.236Z,7.70
2019-02-07T08:40:00.822Z,7.70
2019-02-07T08:42:33.674Z,7.70
2019-02-07T08:45:04.884Z,7.80
2019-02-07T08:47:58.585Z,7.90
2019-02-07T08:50:44.977Z,7.90
2019-02-07T08:53:36.435Z,7.90
2019-02-07T08:56:14.949Z,8.00
2019-02-07T08:58:53.000Z,8.00
2019-02-07T09:01:28.877Z,8.10
2019-02-07T09:04:07.837Z,8.10
2019-02-07T09:06:41.612Z,8.20
2019-02-07T09:09:17.131Z,8.20
2019-02-07T09:11:47.842Z,8.40
2019-02-07T09:14:21.220Z,8.40
2019-02-07T09:17:09.240Z,8.40
2019-02-07T09:19:46.386Z,8.50
2019-02-07T09:22:19.164Z,8.40
2019-02-07T09:24:58.611Z,8.40
2019-02-07T09:27:43.583Z,8.50
2019-02-07T09:30:31.353Z,8.70
2019-02-07T09:33:09.998Z,8.70
2019-02-07T09:35:47.706Z,8.80
2019-02-07T09:38:33.865Z,8.80
2019-02-07T09:41:21.987Z,8.80
2019-02-07T09:44:07.519Z,8.80
2019-02-07T09:46:47.013Z,8.90
2019-02-07T09:49:25.687Z,9.00
2019-02-07T09:52:10.621Z,9.00
2019-02-07T09:54:54.707Z,9.00
2019-02-07T09:57:34.769Z,9.00
2019-02-07T10:00:09.319Z,9.10
2019-02-07T10:02:39.711Z,9.20
2019-02-07T10:05:15.979Z,9.40
2019-02-07T10:07:53.076Z,9.50
2019-02-07T10:10:39.452Z,9.60
2019-02-07T10:13:09.725Z,9.60
2019-02-07T10:16:00.080Z,9.50
2019-02-07T10:18:50.445Z,9.50
2019-02-07T10:21:22.721Z,9.60
2019-02-07T10:23:58.967Z,9.80
2019-02-07T10:26:33.403Z,9.90
2019-02-07T10:29:20.481Z,10.00
2019-02-07T10:32:09.175Z,10.00
2019-02-07T10:34:58.337Z,9.90
2019-02-07T10:37:35.413Z,10.20
2019-02-07T10:40:23.387Z,10.40
2019-02-07T10:42:59.143Z,10.40
2019-02-07T10:45:42.045Z,10.30
2019-02-07T10:48:21.176Z,10.30
2019-02-07T10:50:56.752Z,10.30
2019-02-07T10:53:42.184Z,10.40
2019-02-07T10:56:16.799Z,10.40
2019-02-07T10:58:56.848Z,10.30
2019-02-07T11:01:43.578Z,10.40
2019-02-07T11:04:15.557Z,10.40
2019-02-07T11:06:48.370Z,10.30
2019-02-07T11:09:38.638Z,10.30
2019-02-07T11:12:24.443Z,10.40
2019-02-07T11:15:06.462Z,10.50
2019-02-07T11:17:47.525Z,10.40
2019-02-07T11:20:37.639Z,10.40
2019-02-07T11:23:10.724Z,10.50
2019-02-07T11:25:52.662Z,10.50
2019-02-07T11:28:37.182Z,10.60
2019-02-07T11:31:26.443Z,10.60
2019-02-07T11:34:14.088Z,10.50
2019-02-07T11:36:54.214Z,10.60
2019-02-07T11:39:29.752Z,10.60
2019-02-07T11:42:05.366Z,10.70
2019-02-07T11:44:38.751Z,10.80
2019-02-07T11:47:09.045Z,10.80
2019-02-07T11:49:56.093Z,10.60
2019-02-07T11:52:43.191Z,10.60
2019-02-07T11:55:17.029Z,10.60
2019-02-07T11:57:55.663Z,10.70
2019-02-07T12:00:29.142Z,10.70
2019-02-07T12:03:16.491Z,10.60
2019-02-07T12:06:04.192Z,10.60
2019-02-07T12:08:42.902Z,10.60
2019-02-07T12:11:15.646Z,10.80
2019-02-07T12:14:05.084Z,10.80
2019-02-07T12:16:44.429Z,10.70
2019-02-07T12:19:25.706Z,10.70
2019-02-07T12:21:59.337Z,10.70
2019-02-07T12:24:33.410Z,10.70
2019-02-07T12:27:15.469Z,10.80
2019-02-07T12:29:56.876Z,10.70
2019-02-07T12:32:35.901Z,10.70
2019-02-07T12:35:20.891Z,10.60
2019-02-07T12:38:09.626Z,10.60
2019-02-07T12:40:46.111Z,10.60
2019-02-07T12:43:19.960Z,10.70
2019-02-07T12:46:09.468Z,10.70
2019-02-07T12:48:43.596Z,10.70
2019-02-07T12:51:23.516Z,10.70
2019-02-07T12:54:04.930Z,10.60
2019-02-07T12:56:43.729Z,10.70
2019-02-07T12:59:23.618Z,10.60
2019-02-07T13:02:06.423Z,10.60
2019-02-07T13:04:52.881Z,10.50
2019-02-07T13:07:31.429Z,10.60
2019-02-07T13:10:04.046Z,10.50
2019-02-07T13:12:40.657Z,10.50
2019-02-07T13:15:11.922Z,10.60
2019-02-07T13:17:45.693Z,10.60
2019-02-07T13:20:25.503Z,10.70
2019-02-07T13:22:56.502Z,10.70
2019-02-07T13:25:28.385Z,10.80
2019-02-07T13:28:18.543Z,10.80
2019-02-07T13:31:07.385Z,10.80
2019-02-07T13:33:56.572Z,10.80
2019-02-07T13:36:46.491Z,10.80
2019-02-07T13:39:33.626Z,10.70
2019-02-07T13:42:06.728Z,10.70
2019-02-07T13:44:41.966Z,10.70
2019-02-07T13:47:22.554Z,10.60
2019-02-07T13:50:07.512Z,10.70
2019-02-07T13:52:46.350Z,10.70
2019-02-07T13:55:31.430Z,10.80
2019-02-07T13:58:23.091Z,10.90
2019-02-07T14:00:57.048Z,11.00
2019-02-07T14:03:42.052Z,11.00
2019-02-07T14:06:32.860Z,11.00
2019-02-07T14:09:06.544Z,11.10
2019-02-07T14:11:43.559Z,11.10
2019-02-07T14:14:19.918Z,11.00
2019-02-07T14:17:04.904Z,11.00
2019-02-07T14:20:03.209Z,11.00
2019-02-07T14:22:41.587Z,11.00
2019-02-07T14:25:16.481Z,11.10
2019-02-07T14:28:08.585Z,11.10
2019-02-07T14:30:46.315Z,11.00
2019-02-07T14:33:16.945Z,11.00
2019-02-07T14:36:16.600Z,10.90
2019-02-07T14:39:06.419Z,11.00
2019-02-07T14:41:40.055Z,10.90
2019-02-07T14:44:10.117Z,10.80
2019-02-07T14:46:51.264Z,10.90
2019-02-07T14:49:19.746Z,10.90
2019-02-07T14:51:48.174Z,10.80
2019-02-07T14:54:19.735Z,10.80
2019-02-07T14:56:48.220Z,10.90
2019-02-07T14:59:16.658Z,10.90
2019-02-07T15:01:45.208Z,10.80
2019-02-07T15:04:13.924Z,10.80
2019-02-07T15:06:42.504Z,10.60
2019-02-07T15:09:12.635Z,10.60
2019-02-07T15:11:41.309Z,10.60
2019-02-07T15:14:09.881Z,10.50
2019-02-07T15:16:38.374Z,10.50
2019-02-07T15:19:06.824Z,10.50
2019-02-07T15:21:35.240Z,10.40
2019-02-07T15:24:04.030Z,10.40
2019-02-07T15:26:32.567Z,10.30
2019-02-07T15:29:01.030Z,10.30
2019-02-07T15:31:29.577Z,10.30
2019-02-07T15:33:58.025Z,10.30
2019-02-07T15:36:26.429Z,10.30
2019-02-07T15:38:55.254Z,10.30
2019-02-07T15:41:24.120Z,10.30
2019-02-07T15:43:52.638Z,10.30
2019-02-07T15:46:21.184Z,10.20
2019-02-07T15:48:49.701Z,10.20
2019-02-07T15:51:18.247Z,10.20
2019-02-07T15:53:47.120Z,10.10
2019-02-07T15:56:15.590Z,10.10
2019-02-07T15:59:01.840Z,10.00
2019-02-07T16:01:31.963Z,10.00
2019-02-07T16:04:02.078Z,10.00
2019-02-07T16:06:30.594Z,10.00
2019-02-07T16:08:59.407Z,9.90
2019-02-07T16:11:27.884Z,9.90
2019-02-07T16:13:56.370Z,9.90
2019-02-07T16:16:24.857Z,9.80
2019-02-07T16:18:53.332Z,9.70
2019-02-07T16:21:21.869Z,9.70
2019-02-07T16:23:50.771Z,9.70
2019-02-07T16:26:19.241Z,9.70
2019-02-07T16:28:47.713Z,9.70
2019-02-07T16:31:16.162Z,9.70
2019-02-07T16:33:44.647Z,9.70
2019-02-07T16:36:13.595Z,9.60
2019-02-07T16:38:42.082Z,9.60
2019-02-07T16:41:10.792Z,9.50
2019-02-07T16:43:39.311Z,9.40
2019-02-07T16:46:07.911Z,9.40
2019-02-07T16:48:36.434Z,9.40
2019-02-07T16:51:05.487Z,9.40
2019-02-07T16:53:33.936Z,9.30
2019-02-07T16:56:02.751Z,9.30
2019-02-07T16:58:31.179Z,9.20
2019-02-07T17:00:59.691Z,9.10
2019-02-07T17:03:28.228Z,9.00
2019-02-07T17:05:56.802Z,9.00
2019-02-07T17:08:25.287Z,9.00
2019-02-07T17:10:53.951Z,8.90
2019-02-07T17:13:22.388Z,8.80
2019-02-07T17:15:50.889Z,8.80
2019-02-07T17:18:19.338Z,8.80
2019-02-07T17:20:47.944Z,8.70
2019-02-07T17:23:16.473Z,8.60
2019-02-07T17:25:45.074Z,8.50
2019-02-07T17:28:13.798Z,8.50
2019-02-07T17:30:42.371Z,8.50
2019-02-07T17:33:10.937Z,8.40
2019-02-07T17:35:39.607Z,8.50
2019-02-07T17:38:08.730Z,8.50
2019-02-07T17:40:37.162Z,8.40
2019-02-07T17:43:05.636Z,8.30
2019-02-07T17:45:34.166Z,8.30
2019-02-07T17:48:03.169Z,8.40
2019-02-07T17:50:36.639Z,8.40
2019-02-07T17:53:10.136Z,8.50
2019-02-07T17:55:38.644Z,8.50
2019-02-07T17:58:08.014Z,8.50
2019-02-07T18:00:52.708Z,8.60
2019-02-07T18:03:21.286Z,8.60
2019-02-07T18:05:49.983Z,8.70
2019-02-07T18:08:18.727Z,8.70
2019-02-07T18:10:47.893Z,8.60
2019-02-07T18:13:16.472Z,8.50
2019-02-07T18:15:44.946Z,8.40
2019-02-07T18:18:13.604Z,8.30
2019-02-07T18:20:42.160Z,8.30
2019-02-07T18:23:10.654Z,8.20
2019-02-07T18:25:39.210Z,8.10
2019-02-07T18:28:08.070Z,8.00
2019-02-07T18:30:36.706Z,7.90
2019-02-07T18:33:05.300Z,7.90
2019-02-07T18:35:34.726Z,7.80
2019-02-07T18:38:03.326Z,7.80
2019-02-07T18:40:32.612Z,7.70
2019-02-07T18:43:01.510Z,7.70
2019-02-07T18:45:30.013Z,7.70
2019-02-07T18:47:58.455Z,7.60
2019-02-07T18:50:32.821Z,7.60
2019-02-07T18:53:01.302Z,7.50
2019-02-07T18:55:29.811Z,7.40
2019-02-07T18:57:58.855Z,7.70
2019-02-07T19:00:29.899Z,7.90
2019-02-07T19:02:58.381Z,7.50
2019-02-07T19:05:27.259Z,7.40
2019-02-07T19:07:55.824Z,7.20
2019-02-07T19:10:26.433Z,7.10
2019-02-07T19:12:54.859Z,7.10
2019-02-07T19:15:29.197Z,7.00
2019-02-07T19:17:57.661Z,7.20
2019-02-07T19:20:26.154Z,7.10
2019-02-07T19:22:54.677Z,7.00
2019-02-07T19:25:23.266Z,6.90
2019-02-07T19:27:51.785Z,6.80
2019-02-07T19:30:28.749Z,6.80
2019-02-07T19:32:58.230Z,6.80
2019-02-07T19:35:26.773Z,6.90
2019-02-07T19:37:55.269Z,6.90
2019-02-07T19:40:23.869Z,7.00
2019-02-07T19:42:52.379Z,7.00
2019-02-07T19:45:25.361Z,7.00
2019-02-07T19:47:53.939Z,7.00
2019-02-07T19:50:24.863Z,7.10
2019-02-07T19:52:53.370Z,7.10
2019-02-07T19:55:24.633Z,7.20
2019-02-07T19:57:53.462Z,7.20
2019-02-07T20:00:27.784Z,7.60
2019-02-07T20:02:56.766Z,7.50
2019-02-07T20:05:27.404Z,7.40
2019-02-07T20:07:57.259Z,7.30
2019-02-07T20:10:40.345Z,7.20
2019-02-07T20:13:09.263Z,7.20
2019-02-07T20:15:43.006Z,7.20
2019-02-07T20:18:12.011Z,7.20
2019-02-07T20:20:41.938Z,7.20
2019-02-07T20:23:18.500Z,7.20
2019-02-07T20:25:49.608Z,7.30
2019-02-07T20:28:18.862Z,7.40
2019-02-07T20:30:53.755Z,7.40
2019-02-07T20:33:22.242Z,7.40
2019-02-07T20:35:50.691Z,7.40
2019-02-07T20:38:19.218Z,7.40
2019-02-07T20:40:47.645Z,7.40
2019-02-07T20:43:16.248Z,7.40
2019-02-07T20:45:44.678Z,7.40
2019-02-07T20:48:13.495Z,7.80
2019-02-07T20:50:42.185Z,7.70
2019-02-07T20:53:11.151Z,7.50
2019-02-07T20:55:41.516Z,7.50
2019-02-07T20:58:12.137Z,7.50
2019-02-07T21:00:49.539Z,7.40
2019-02-07T21:03:20.304Z,7.40
2019-02-07T21:05:48.771Z,7.40
2019-02-07T21:08:17.266Z,7.40
2019-02-07T21:10:46.141Z,7.40
2019-02-07T21:13:14.639Z,7.50
2019-02-07T21:15:43.097Z,7.40
2019-02-07T21:18:11.608Z,7.40
2019-02-07T21:20:40.202Z,7.40
2019-02-07T21:23:08.953Z,7.60
2019-02-07T21:25:40.289Z,7.60
2019-02-07T21:28:09.328Z,7.50
2019-02-07T21:30:37.966Z,7.50
2019-02-07T21:33:06.974Z,7.40
2019-02-07T21:35:35.520Z,7.30
2019-02-07T21:38:05.383Z,7.30
2019-02-07T21:40:34.170Z,7.20
2019-02-07T21:43:02.869Z,7.20
2019-02-07T21:45:31.664Z,7.10
2019-02-07T21:48:00.665Z,7.00
2019-02-07T21:50:32.615Z,6.90
2019-02-07T21:53:01.301Z,6.90
2019-02-07T21:55:35.173Z,6.80
2019-02-07T21:58:04.332Z,6.70
2019-02-07T22:00:35.367Z,6.70
2019-02-07T22:03:04.700Z,6.60
2019-02-07T22:05:33.286Z,6.70
2019-02-07T22:08:01.747Z,6.70
2019-02-07T22:10:30.418Z,6.80
2019-02-07T22:12:58.897Z,6.70
2019-02-07T22:15:28.374Z,6.80
2019-02-07T22:17:56.919Z,7.20
2019-02-07T22:20:27.423Z,7.10
2019-02-07T22:22:56.692Z,7.00
2019-02-07T22:25:25.340Z,6.90
2019-02-07T22:27:53.926Z,6.80
2019-02-07T22:30:30.938Z,6.80
2019-02-07T22:32:59.424Z,6.70
2019-02-07T22:35:27.987Z,6.60
2019-02-07T22:37:56.639Z,6.50
2019-02-07T22:40:25.829Z,6.50
2019-02-07T22:42:54.472Z,6.50
2019-02-07T22:45:25.430Z,6.40
2019-02-07T22:47:53.874Z,6.40
2019-02-07T22:50:24.631Z,6.40
2019-02-07T22:52:57.155Z,6.30
2019-02-07T22:55:23.966Z,6.20
2019-02-07T22:57:52.568Z,6.20
2019-02-07T23:00:37.716Z,6.10
2019-02-07T23:03:07.816Z,6.00
2019-02-07T23:05:37.219Z,6.00
2019-02-07T23:08:06.126Z,6.10
2019-02-07T23:10:34.772Z,6.00
2019-02-07T23:13:04.394Z,6.00
2019-02-07T23:15:33.033Z,6.00
2019-02-07T23:18:01.450Z,5.90
2019-02-07T23:20:30.866Z,5.90
2019-02-07T23:23:04.922Z,5.90
2019-02-07T23:25:29.494Z,5.80
2019-02-07T23:27:58.346Z,5.80
2019-02-07T23:30:27.430Z,5.90
2019-02-07T23:32:55.914Z,5.90
2019-02-07T23:35:24.378Z,5.90
2019-02-07T23:37:52.952Z,5.90
2019-02-07T23:40:22.104Z,5.90
2019-02-07T23:42:50.793Z,5.80
2019-02-07T23:45:21.613Z,5.80
2019-02-07T23:47:50.092Z,5.70
2019-02-07T23:50:19.409Z,5.70
2019-02-07T23:52:48.148Z,5.70
2019-02-07T23:55:16.923Z,5.70
2019-02-07T23:57:45.438Z,5.70
